Terminal Aerodrome Forecast
Issued by NWS

Home | Current Version | Previous Version | Text Only | Print | Product List | Glossary On
Versions: 1 2 3 4 5 6 7 8 9 10 11 12 13 14 15 16 17 18
000
FTUS41 KBOX 210907 AAA
TAFACK
TAF AMD
KACK 210907Z 2109/2206 36030G44KT 5SM SHRA BR OVC004 WS020/04055KT
     FM211400 01032G50KT 3SM -SHRA BR OVC003 WS020/04055KT
     FM220400 02032G49KT 5SM -SHRA BR OVC008=

USA.gov is the U.S. government's official web portal to all federal, state and local government web resources and services.